Flight Track Log - Related Links

Times and Time Zones

All times are in EDT time to prevent confusion due to time zone crossing. See the THY2459 flight status page for this flight to view local times or setup timezone preferences in your user account.

Time Position Orientation Groundspeed Altitude Reporting Facility
EDT Latitude Longitude Course Direction KTS MPH feet Rate Location/Type
Sun 04:20:00 AM 37.5831 34.3878 311° West  Level Estimated
Sun 04:21:00 AM 37.6428 34.2977 310° West  Level Estimated
Sun 04:22:00 AM 37.7024 34.2075 310° West  Level Estimated
Sun 04:23:00 AM 37.7620 34.1172 310° West  Level Estimated
Sun 04:24:00 AM 37.8215 34.0267 310° West  Level Estimated
Sun 04:25:00 AM 37.8810 33.9361 310° West  Level Estimated
Sun 04:26:00 AM 37.9403 33.8453 310° West  Level Estimated
Sun 04:27:00 AM 37.9996 33.7543 310° West  Level Estimated
Sun 04:28:00 AM 38.0589 33.6633 310° West  Level Estimated
Sun 04:29:00 AM 38.1180 33.5720 310° West  Level Estimated
Sun 04:30:00 AM 38.1771 33.4807 309° West  Level Estimated
Sun 04:31:00 AM 38.2361 33.3892 309° West  Level Estimated
Sun 04:32:00 AM 38.2951 33.2975 309° West  Level Estimated
Sun 04:33:00 AM 38.3540 33.2057 309° West  Level Estimated
Sun 04:34:00 AM 38.4128 33.1137 309° West  Level Estimated
Sun 04:35:00 AM 38.4715 33.0216 309° West  Level Estimated
Sun 04:36:00 AM 38.5302 32.9294 309° West  Level Estimated
Sun 04:37:00 AM 38.5888 32.8369 309° West  Level Estimated
Sun 04:38:00 AM 38.6473 32.7444 309° West  Level Estimated
Sun 04:39:00 AM 38.7057 32.6517 309° West  Level Estimated
Sun 04:40:00 AM 38.7641 32.5588 309° West  Level Estimated
Sun 04:41:00 AM 38.8224 32.4658 309° West  Level Estimated
Sun 04:42:00 AM 38.8806 32.3726 309° West  Level Estimated
Sun 04:43:00 AM 38.9388 32.2793 309° West  Level Estimated
Sun 04:44:00 AM 38.9969 32.1858 309° West  Level Estimated
Sun 04:45:00 AM 39.0549 32.0922 309° West  Level Estimated
Sun 04:46:00 AM 39.1128 31.9984 309° West  Level Estimated
Sun 04:47:00 AM 39.1706 31.9045 308° West  Level Estimated
Sun 04:48:00 AM 39.2284 31.8104 308° West  Level Estimated
Sun 04:49:00 AM 39.2861 31.7161 308° West  Level Estimated
Sun 04:50:00 AM 39.3437 31.6217 308° West  Level Estimated
Sun 04:51:00 AM 39.4013 31.5272 308° West  Level Estimated
Sun 04:52:00 AM 39.4588 31.4324 308° West  Level Estimated
Sun 04:53:00 AM 39.5162 31.3376 308° West  Level Estimated
Sun 04:54:00 AM 39.5735 31.2425 308° West  Level Estimated
Sun 04:55:00 AM 39.6307 31.1474 308° West  Level Estimated
Sun 04:56:00 AM 39.6879 31.0520 308° West  Level Estimated
Sun 04:57:00 AM 39.7449 30.9565 308° West  Level Estimated
Sun 04:58:00 AM 39.8019 30.8608 308° West  Level Estimated
Sun 04:59:00 AM 39.8589 30.7650 308° West  Level Estimated
Sun 05:00:00 AM 39.9157 30.6691 308° West  Level Estimated
Sun 05:01:00 AM 39.9725 30.5729 308° West  Level Estimated
Sun 05:02:00 AM 40.0292 30.4766 308° West  Level Estimated
Sun 05:03:00 AM 40.0858 30.3801 308° West  Level Estimated
Sun 05:04:00 AM 40.1423 30.2835 307° West  Level Estimated
Sun 05:05:00 AM 40.1988 30.1868 307° West  Level Estimated
Sun 05:06:00 AM 40.2551 30.0898 307° West  Level Estimated
Sun 05:07:00 AM 40.3114 29.9927 307° West  Level Estimated
Sun 05:08:00 AM 40.3676 29.8955 307° West  Level Estimated
Sun 05:09:00 AM 40.4238 29.7980 307° West  Level Estimated
Sun 05:10:00 AM 40.4798 29.7004 307° West  Level Estimated
Sun 05:11:00 AM 40.5358 29.6027 307° West  Level Estimated
Sun 05:12:00 AM 40.5916 29.5048 307° West  Level Estimated
Sun 05:13:00 AM 40.6474 29.4067 307° West  Level Estimated
Sun 05:14:00 AM 40.7031 29.3085 307° West  Level Estimated
Sun 05:15:00 AM 40.7588 29.2101 307° West  Level Estimated
Sun 05:16:00 AM 40.8143 29.1115 307° West  Level Estimated
Sun 05:17:00 AM 40.8698 29.0127 307° West  Level Estimated
Sun 05:18:00 AM 40.9251 28.9138 307° West  Level Estimated
Sun 05:19:00 AM 40.9769 28.8211 306° West  Level Estimated
Sun 05:20:00 AM 40.9769 28.8211 21° North  Level Estimated
Sun 05:21:00 AM 40.9769 28.8211 21° North  Level Estimated
Sun 05:22:00 AM 40.9769 28.8211 21° North  Level Estimated
Sun 05:23:00 AM 40.9769 28.8211 21° North  Level Estimated
Sun 05:24:00 AM 40.9769 28.8211 21° North  Level Estimated
Sun 05:25:00 AM 40.9769 28.8211 21° North  Level Estimated
Sun 05:26:00 AM 40.9769 28.8211 21° North  Level Estimated
Sun 05:27:00 AM 40.9769 28.8211 21° North  Level Estimated
Sun 05:28:00 AM 40.9769 28.8211 21° North  Level Estimated
Sun 05:29:00 AM 40.9769 28.8211 21° North  Level Estimated
Sun 05:30:00 AM 40.9769 28.8211 21° North  Level Estimated
Sun 05:31:00 AM 40.9769 28.8211 21° North  Level Estimated
Sun 05:32:00 AM 40.9769 28.8211 21° North  Level Estimated
Sun 05:33:00 AM 40.9769 28.8211 21° North  Level Estimated
Sun 05:34:00 AM 40.9769 28.8211 21° North  Level Estimated
Sun 05:35:00 AM 40.9769 28.8211 21° North  Level Estimated

Login

Don't have an account? Register now (free) for customized features, flight alerts, and more!